sensor_id;sensor_type;location;lat;lon;timestamp;pressure;altitude;pressure_sealevel;temperature;humidity
8501;BME280;4288;48.484;10.024;2023-03-14T00:00:51;94270.97;;;8.22;nan
8501;BME280;4288;48.484;10.024;2023-03-14T00:03:18;94263.03;;;8.18;nan
8501;BME280;4288;48.484;10.024;2023-03-14T00:05:45;94267.16;;;8.23;nan
8501;BME280;4288;48.484;10.024;2023-03-14T00:08:13;94267.53;;;8.28;nan
8501;BME280;4288;48.484;10.024;2023-03-14T00:10:41;94269.41;;;8.28;nan
8501;BME280;4288;48.484;10.024;2023-03-14T00:13:09;94260.69;;;8.27;nan
8501;BME280;4288;48.484;10.024;2023-03-14T00:15:36;94272.50;;;8.23;nan
8501;BME280;4288;48.484;10.024;2023-03-14T00:18:03;94265.25;;;8.23;nan
8501;BME280;4288;48.484;10.024;2023-03-14T00:20:31;94270.25;;;8.18;nan
8501;BME280;4288;48.484;10.024;2023-03-14T00:22:58;94271.81;;;8.15;nan
8501;BME280;4288;48.484;10.024;2023-03-14T00:25:25;94260.09;;;8.05;nan
8501;BME280;4288;48.484;10.024;2023-03-14T00:27:52;94247.94;;;8.04;nan
8501;BME280;4288;48.484;10.024;2023-03-14T00:30:20;94229.03;;;7.95;nan
8501;BME280;4288;48.484;10.024;2023-03-14T00:32:48;94219.56;;;7.91;nan
8501;BME280;4288;48.484;10.024;2023-03-14T00:35:15;94198.34;;;7.84;nan
8501;BME280;4288;48.484;10.024;2023-03-14T00:37:42;94190.06;;;7.75;nan
8501;BME280;4288;48.484;10.024;2023-03-14T00:40:11;94178.66;;;7.74;nan
8501;BME280;4288;48.484;10.024;2023-03-14T00:42:38;94176.09;;;7.67;nan
8501;BME280;4288;48.484;10.024;2023-03-14T00:45:06;94152.19;;;7.64;nan
8501;BME280;4288;48.484;10.024;2023-03-14T00:47:35;94143.50;;;7.60;nan
8501;BME280;4288;48.484;10.024;2023-03-14T00:50:03;94137.78;;;7.61;nan
8501;BME280;4288;48.484;10.024;2023-03-14T00:52:30;94121.50;;;7.56;nan
8501;BME280;4288;48.484;10.024;2023-03-14T00:54:57;94119.59;;;7.56;nan
8501;BME280;4288;48.484;10.024;2023-03-14T00:57:24;94066.41;;;7.60;nan
8501;BME280;4288;48.484;10.024;2023-03-14T00:59:51;94044.31;;;7.63;nan
8501;BME280;4288;48.484;10.024;2023-03-14T01:02:19;94044.72;;;7.61;nan
8501;BME280;4288;48.484;10.024;2023-03-14T01:04:49;94033.03;;;7.55;nan
8501;BME280;4288;48.484;10.024;2023-03-14T01:07:16;94024.63;;;7.60;nan
8501;BME280;4288;48.484;10.024;2023-03-14T01:09:43;94048.56;;;7.60;nan
8501;BME280;4288;48.484;10.024;2023-03-14T01:12:10;94030.69;;;7.61;nan
8501;BME280;4288;48.484;10.024;2023-03-14T01:14:37;94078.16;;;7.62;nan
8501;BME280;4288;48.484;10.024;2023-03-14T01:17:04;94073.19;;;7.64;nan
8501;BME280;4288;48.484;10.024;2023-03-14T01:19:31;94079.66;;;7.63;nan
8501;BME280;4288;48.484;10.024;2023-03-14T01:22:00;94062.63;;;7.57;nan
8501;BME280;4288;48.484;10.024;2023-03-14T01:24:27;94063.34;;;7.61;nan
8501;BME280;4288;48.484;10.024;2023-03-14T01:26:54;94070.91;;;7.63;nan
8501;BME280;4288;48.484;10.024;2023-03-14T01:29:21;94063.28;;;7.65;nan
8501;BME280;4288;48.484;10.024;2023-03-14T01:31:48;94067.06;;;7.67;nan
8501;BME280;4288;48.484;10.024;2023-03-14T01:34:15;94046.63;;;7.64;nan
8501;BME280;4288;48.484;10.024;2023-03-14T01:36:42;94033.34;;;7.61;nan
8501;BME280;4288;48.484;10.024;2023-03-14T01:39:11;94026.25;;;7.51;nan
8501;BME280;4288;48.484;10.024;2023-03-14T01:41:39;94039.06;;;7.59;nan
8501;BME280;4288;48.484;10.024;2023-03-14T01:44:10;94047.13;;;7.52;nan
8501;BME280;4288;48.484;10.024;2023-03-14T01:46:39;94023.91;;;7.56;nan
8501;BME280;4288;48.484;10.024;2023-03-14T01:49:16;94029.97;;;7.57;nan
8501;BME280;4288;48.484;10.024;2023-03-14T01:51:50;94017.47;;;7.54;nan
8501;BME280;4288;48.484;10.024;2023-03-14T01:54:25;94027.66;;;7.59;nan
8501;BME280;4288;48.484;10.024;2023-03-14T01:56:57;94023.16;;;7.56;nan
8501;BME280;4288;48.484;10.024;2023-03-14T01:59:28;94025.44;;;7.54;nan
8501;BME280;4288;48.484;10.024;2023-03-14T02:01:56;94022.06;;;7.50;nan
8501;BME280;4288;48.484;10.024;2023-03-14T02:04:27;94027.38;;;7.50;nan
8501;BME280;4288;48.484;10.024;2023-03-14T02:07:00;94009.03;;;7.62;nan
8501;BME280;4288;48.484;10.024;2023-03-14T02:09:31;94001.84;;;7.59;nan
8501;BME280;4288;48.484;10.024;2023-03-14T02:11:58;94011.28;;;7.64;nan
8501;BME280;4288;48.484;10.024;2023-03-14T02:14:31;94012.16;;;7.54;nan
8501;BME280;4288;48.484;10.024;2023-03-14T02:16:59;94014.81;;;7.54;nan
8501;BME280;4288;48.484;10.024;2023-03-14T02:19:39;94009.41;;;7.61;nan
8501;BME280;4288;48.484;10.024;2023-03-14T02:22:14;94004.53;;;7.56;nan
8501;BME280;4288;48.484;10.024;2023-03-14T02:24:48;93995.75;;;7.59;nan
8501;BME280;4288;48.484;10.024;2023-03-14T02:27:19;93992.75;;;7.57;nan
8501;BME280;4288;48.484;10.024;2023-03-14T02:29:51;93999.13;;;7.63;nan
8501;BME280;4288;48.484;10.024;2023-03-14T02:32:21;93987.41;;;7.60;nan
8501;BME280;4288;48.484;10.024;2023-03-14T02:34:53;93985.41;;;7.68;nan
8501;BME280;4288;48.484;10.024;2023-03-14T02:37:24;93980.88;;;7.65;nan
8501;BME280;4288;48.484;10.024;2023-03-14T02:39:54;93982.31;;;7.73;nan
8501;BME280;4288;48.484;10.024;2023-03-14T02:42:22;93983.13;;;7.70;nan
8501;BME280;4288;48.484;10.024;2023-03-14T02:44:53;93972.44;;;7.73;nan
8501;BME280;4288;48.484;10.024;2023-03-14T02:47:27;93961.03;;;7.73;nan
8501;BME280;4288;48.484;10.024;2023-03-14T02:50:06;93966.81;;;7.68;nan
8501;BME280;4288;48.484;10.024;2023-03-14T02:52:35;93980.75;;;7.75;nan
8501;BME280;4288;48.484;10.024;2023-03-14T02:55:02;93983.03;;;7.77;nan
8501;BME280;4288;48.484;10.024;2023-03-14T02:57:31;93986.13;;;7.72;nan
8501;BME280;4288;48.484;10.024;2023-03-14T02:59:58;93992.94;;;7.73;nan
8501;BME280;4288;48.484;10.024;2023-03-14T03:02:26;93972.78;;;7.75;nan
8501;BME280;4288;48.484;10.024;2023-03-14T03:04:53;93975.84;;;7.74;nan
8501;BME280;4288;48.484;10.024;2023-03-14T03:07:20;93973.25;;;7.70;nan
8501;BME280;4288;48.484;10.024;2023-03-14T03:09:47;93976.72;;;7.64;nan
8501;BME280;4288;48.484;10.024;2023-03-14T03:12:14;93975.97;;;7.63;nan
8501;BME280;4288;48.484;10.024;2023-03-14T03:14:43;93974.06;;;7.64;nan
8501;BME280;4288;48.484;10.024;2023-03-14T03:17:10;93968.81;;;7.60;nan
8501;BME280;4288;48.484;10.024;2023-03-14T03:19:37;93971.00;;;7.65;nan
8501;BME280;4288;48.484;10.024;2023-03-14T03:22:04;93957.31;;;7.67;nan
8501;BME280;4288;48.484;10.024;2023-03-14T03:24:31;93954.69;;;7.63;nan
8501;BME280;4288;48.484;10.024;2023-03-14T03:26:58;93952.13;;;7.56;nan
8501;BME280;4288;48.484;10.024;2023-03-14T03:29:25;93939.56;;;7.57;nan
8501;BME280;4288;48.484;10.024;2023-03-14T03:31:54;93941.16;;;7.54;nan
8501;BME280;4288;48.484;10.024;2023-03-14T03:34:21;93933.59;;;7.53;nan
8501;BME280;4288;48.484;10.024;2023-03-14T03:36:48;93923.03;;;7.46;nan
8501;BME280;4288;48.484;10.024;2023-03-14T03:39:15;93921.13;;;7.46;nan
8501;BME280;4288;48.484;10.024;2023-03-14T03:41:42;93914.28;;;7.45;nan
8501;BME280;4288;48.484;10.024;2023-03-14T03:44:09;93900.94;;;7.52;nan
8501;BME280;4288;48.484;10.024;2023-03-14T03:46:36;93899.09;;;7.46;nan
8501;BME280;4288;48.484;10.024;2023-03-14T03:49:04;93897.97;;;7.43;nan
8501;BME280;4288;48.484;10.024;2023-03-14T03:51:31;93897.25;;;7.43;nan
8501;BME280;4288;48.484;10.024;2023-03-14T03:53:58;93898.34;;;7.45;nan
8501;BME280;4288;48.484;10.024;2023-03-14T03:56:25;93902.22;;;7.41;nan
8501;BME280;4288;48.484;10.024;2023-03-14T03:58:52;93896.44;;;7.46;nan
8501;BME280;4288;48.484;10.024;2023-03-14T04:01:19;93904.00;;;7.47;nan
8501;BME280;4288;48.484;10.024;2023-03-14T04:03:47;93917.69;;;7.46;nan
8501;BME280;4288;48.484;10.024;2023-03-14T04:06:15;93907.44;;;7.48;nan
8501;BME280;4288;48.484;10.024;2023-03-14T04:08:42;93911.69;;;7.42;nan
8501;BME280;4288;48.484;10.024;2023-03-14T04:11:10;93905.59;;;7.45;nan
8501;BME280;4288;48.484;10.024;2023-03-14T04:13:37;93893.06;;;7.42;nan
8501;BME280;4288;48.484;10.024;2023-03-14T04:16:10;93904.47;;;7.42;nan
8501;BME280;4288;48.484;10.024;2023-03-14T04:18:40;93916.56;;;7.47;nan
8501;BME280;4288;48.484;10.024;2023-03-14T04:21:07;93917.00;;;7.42;nan
8501;BME280;4288;48.484;10.024;2023-03-14T04:23:35;93917.00;;;7.42;nan
8501;BME280;4288;48.484;10.024;2023-03-14T04:26:03;93902.50;;;7.46;nan
8501;BME280;4288;48.484;10.024;2023-03-14T04:28:30;93899.41;;;7.51;nan
8501;BME280;4288;48.484;10.024;2023-03-14T04:30:58;93897.97;;;7.47;nan
8501;BME280;4288;48.484;10.024;2023-03-14T04:33:25;93891.13;;;7.46;nan
8501;BME280;4288;48.484;10.024;2023-03-14T04:35:54;93877.84;;;7.46;nan
8501;BME280;4288;48.484;10.024;2023-03-14T04:38:21;93881.66;;;7.45;nan
8501;BME280;4288;48.484;10.024;2023-03-14T04:40:50;93877.13;;;7.42;nan
8501;BME280;4288;48.484;10.024;2023-03-14T04:43:17;93880.94;;;7.41;nan
8501;BME280;4288;48.484;10.024;2023-03-14T04:45:44;93873.38;;;7.39;nan
8501;BME280;4288;48.484;10.024;2023-03-14T04:48:11;93866.59;;;7.35;nan
8501;BME280;4288;48.484;10.024;2023-03-14T04:50:39;93870.72;;;7.39;nan
8501;BME280;4288;48.484;10.024;2023-03-14T04:53:06;93874.97;;;7.33;nan
8501;BME280;4288;48.484;10.024;2023-03-14T04:55:33;93861.72;;;7.30;nan
8501;BME280;4288;48.484;10.024;2023-03-14T04:58:03;93865.84;;;7.34;nan
8501;BME280;4288;48.484;10.024;2023-03-14T05:00:30;93847.38;;;7.24;nan
8501;BME280;4288;48.484;10.024;2023-03-14T05:02:57;93848.06;;;7.28;nan
8501;BME280;4288;48.484;10.024;2023-03-14T05:05:24;93842.06;;;7.24;nan
8501;BME280;4288;48.484;10.024;2023-03-14T05:07:51;93835.25;;;7.22;nan
8501;BME280;4288;48.484;10.024;2023-03-14T05:10:19;93834.94;;;7.17;nan
8501;BME280;4288;48.484;10.024;2023-03-14T05:12:46;93829.31;;;7.11;nan
8501;BME280;4288;48.484;10.024;2023-03-14T05:15:14;93831.97;;;7.11;nan
8501;BME280;4288;48.484;10.024;2023-03-14T05:17:41;93835.41;;;7.08;nan
8501;BME280;4288;48.484;10.024;2023-03-14T05:20:10;93840.41;;;7.03;nan
8501;BME280;4288;48.484;10.024;2023-03-14T05:22:38;93847.66;;;6.99;nan
8501;BME280;4288;48.484;10.024;2023-03-14T05:25:07;93844.53;;;7.07;nan
8501;BME280;4288;48.484;10.024;2023-03-14T05:27:34;93834.34;;;7.02;nan
8501;BME280;4288;48.484;10.024;2023-03-14T05:30:02;93835.91;;;7.00;nan
8501;BME280;4288;48.484;10.024;2023-03-14T05:32:31;93833.25;;;7.00;nan
8501;BME280;4288;48.484;10.024;2023-03-14T05:34:59;93824.94;;;6.98;nan
8501;BME280;4288;48.484;10.024;2023-03-14T05:37:26;93818.47;;;6.99;nan
8501;BME280;4288;48.484;10.024;2023-03-14T05:39:53;93818.91;;;6.94;nan
8501;BME280;4288;48.484;10.024;2023-03-14T05:42:21;93820.41;;;6.95;nan
8501;BME280;4288;48.484;10.024;2023-03-14T05:44:48;93821.94;;;6.92;nan
8501;BME280;4288;48.484;10.024;2023-03-14T05:47:15;93819.28;;;6.92;nan
8501;BME280;4288;48.484;10.024;2023-03-14T05:49:43;93809.81;;;6.91;nan
8501;BME280;4288;48.484;10.024;2023-03-14T05:52:10;93816.34;;;6.83;nan
8501;BME280;4288;48.484;10.024;2023-03-14T05:54:37;93811.34;;;6.89;nan
8501;BME280;4288;48.484;10.024;2023-03-14T05:57:04;93818.91;;;6.94;nan
8501;BME280;4288;48.484;10.024;2023-03-14T05:59:31;93813.50;;;7.01;nan
8501;BME280;4288;48.484;10.024;2023-03-14T06:01:58;93799.88;;;6.99;nan
8501;BME280;4288;48.484;10.024;2023-03-14T06:04:26;93800.31;;;6.94;nan
8501;BME280;4288;48.484;10.024;2023-03-14T06:06:54;93792.34;;;6.94;nan
8501;BME280;4288;48.484;10.024;2023-03-14T06:09:21;93793.78;;;6.98;nan
8501;BME280;4288;48.484;10.024;2023-03-14T06:11:49;93784.38;;;6.94;nan
8501;BME280;4288;48.484;10.024;2023-03-14T06:14:16;93792.66;;;6.99;nan
8501;BME280;4288;48.484;10.024;2023-03-14T06:16:43;93788.84;;;7.00;nan
8501;BME280;4288;48.484;10.024;2023-03-14T06:19:10;93791.47;;;7.04;nan
8501;BME280;4288;48.484;10.024;2023-03-14T06:21:37;93789.97;;;7.03;nan
8501;BME280;4288;48.484;10.024;2023-03-14T06:24:06;93784.25;;;7.04;nan
8501;BME280;4288;48.484;10.024;2023-03-14T06:26:33;93783.50;;;7.04;nan
8501;BME280;4288;48.484;10.024;2023-03-14T06:29:00;93782.38;;;7.01;nan
8501;BME280;4288;48.484;10.024;2023-03-14T06:31:29;93793.06;;;6.98;nan
8501;BME280;4288;48.484;10.024;2023-03-14T06:33:56;93787.69;;;7.01;nan
8501;BME280;4288;48.484;10.024;2023-03-14T06:36:24;93783.41;;;7.11;nan
8501;BME280;4288;48.484;10.024;2023-03-14T06:38:51;93792.91;;;7.08;nan
8501;BME280;4288;48.484;10.024;2023-03-14T06:41:19;93782.59;;;7.14;nan
8501;BME280;4288;48.484;10.024;2023-03-14T06:43:49;93787.19;;;7.13;nan
8501;BME280;4288;48.484;10.024;2023-03-14T06:46:16;93791.31;;;7.14;nan
8501;BME280;4288;48.484;10.024;2023-03-14T06:48:43;93807.19;;;7.22;nan
8501;BME280;4288;48.484;10.024;2023-03-14T06:51:10;93788.59;;;7.22;nan
8501;BME280;4288;48.484;10.024;2023-03-14T06:53:38;93788.88;;;7.27;nan
8501;BME280;4288;48.484;10.024;2023-03-14T06:56:06;93790.03;;;7.26;nan
8501;BME280;4288;48.484;10.024;2023-03-14T06:58:35;93797.91;;;7.33;nan
8501;BME280;4288;48.484;10.024;2023-03-14T07:01:02;93799.41;;;7.34;nan
8501;BME280;4288;48.484;10.024;2023-03-14T07:03:30;93808.50;;;7.37;nan
8501;BME280;4288;48.484;10.024;2023-03-14T07:05:57;93813.41;;;7.38;nan
8501;BME280;4288;48.484;10.024;2023-03-14T07:08:25;93820.19;;;7.43;nan
8501;BME280;4288;48.484;10.024;2023-03-14T07:10:52;93818.25;;;7.43;nan
8501;BME280;4288;48.484;10.024;2023-03-14T07:13:19;93827.28;;;7.49;nan
8501;BME280;4288;48.484;10.024;2023-03-14T07:15:47;93825.00;;;7.51;nan
8501;BME280;4288;48.484;10.024;2023-03-14T07:18:14;93827.56;;;7.58;nan
8501;BME280;4288;48.484;10.024;2023-03-14T07:20:41;93836.63;;;7.61;nan
8501;BME280;4288;48.484;10.024;2023-03-14T07:23:08;93833.59;;;7.62;nan
8501;BME280;4288;48.484;10.024;2023-03-14T07:25:35;93839.09;;;7.75;nan
8501;BME280;4288;48.484;10.024;2023-03-14T07:28:02;93832.22;;;7.77;nan
8501;BME280;4288;48.484;10.024;2023-03-14T07:30:30;93831.75;;;7.82;nan
8501;BME280;4288;48.484;10.024;2023-03-14T07:32:58;93838.38;;;7.97;nan
8501;BME280;4288;48.484;10.024;2023-03-14T07:35:25;93830.34;;;8.01;nan
8501;BME280;4288;48.484;10.024;2023-03-14T07:37:52;93832.31;;;8.20;nan
8501;BME280;4288;48.484;10.024;2023-03-14T07:40:19;93840.41;;;8.13;nan
8501;BME280;4288;48.484;10.024;2023-03-14T07:42:48;93841.22;;;8.10;nan
8501;BME280;4288;48.484;10.024;2023-03-14T07:45:15;93841.47;;;8.19;nan
8501;BME280;4288;48.484;10.024;2023-03-14T07:47:42;93825.88;;;8.44;nan
8501;BME280;4288;48.484;10.024;2023-03-14T07:50:11;93832.03;;;8.61;nan
8501;BME280;4288;48.484;10.024;2023-03-14T07:52:38;93821.47;;;8.96;nan
8501;BME280;4288;48.484;10.024;2023-03-14T07:55:06;93823.19;;;8.87;nan
8501;BME280;4288;48.484;10.024;2023-03-14T07:57:33;93825.97;;;8.80;nan
8501;BME280;4288;48.484;10.024;2023-03-14T08:00:01;93828.34;;;8.74;nan
8501;BME280;4288;48.484;10.024;2023-03-14T08:02:28;93829.19;;;8.91;nan
8501;BME280;4288;48.484;10.024;2023-03-14T08:04:55;93828.72;;;9.16;nan
8501;BME280;4288;48.484;10.024;2023-03-14T08:07:24;93826.13;;;9.12;nan
8501;BME280;4288;48.484;10.024;2023-03-14T08:09:51;93836.19;;;9.40;nan
8501;BME280;4288;48.484;10.024;2023-03-14T08:12:18;93828.72;;;9.16;nan
8501;BME280;4288;48.484;10.024;2023-03-14T08:14:45;93834.03;;;9.35;nan
8501;BME280;4288;48.484;10.024;2023-03-14T08:17:12;93842.38;;;9.89;nan
8501;BME280;4288;48.484;10.024;2023-03-14T08:19:41;93842.03;;;9.71;nan
8501;BME280;4288;48.484;10.024;2023-03-14T08:22:08;93841.88;;;9.42;nan
8501;BME280;4288;48.484;10.024;2023-03-14T08:24:37;93835.25;;;9.31;nan
8501;BME280;4288;48.484;10.024;2023-03-14T08:27:04;93833.66;;;9.53;nan
8501;BME280;4288;48.484;10.024;2023-03-14T08:29:31;93836.88;;;9.80;nan
8501;BME280;4288;48.484;10.024;2023-03-14T08:31:58;93830.94;;;9.37;nan
8501;BME280;4288;48.484;10.024;2023-03-14T08:34:25;93828.94;;;9.41;nan
8501;BME280;4288;48.484;10.024;2023-03-14T08:36:52;93819.22;;;9.86;nan
8501;BME280;4288;48.484;10.024;2023-03-14T08:39:21;93818.75;;;10.23;nan
8501;BME280;4288;48.484;10.024;2023-03-14T08:41:51;93819.78;;;9.94;nan
8501;BME280;4288;48.484;10.024;2023-03-14T08:44:18;93826.47;;;10.34;nan
8501;BME280;4288;48.484;10.024;2023-03-14T08:46:45;93821.31;;;10.27;nan
8501;BME280;4288;48.484;10.024;2023-03-14T08:49:12;93817.06;;;10.29;nan
8501;BME280;4288;48.484;10.024;2023-03-14T08:51:40;93814.53;;;10.83;nan
8501;BME280;4288;48.484;10.024;2023-03-14T08:54:10;93820.25;;;10.69;nan
8501;BME280;4288;48.484;10.024;2023-03-14T08:56:37;93824.94;;;10.65;nan
8501;BME280;4288;48.484;10.024;2023-03-14T08:59:06;93812.59;;;11.00;nan
8501;BME280;4288;48.484;10.024;2023-03-14T09:01:33;93809.28;;;11.08;nan
8501;BME280;4288;48.484;10.024;2023-03-14T09:04:00;93816.16;;;11.22;nan
8501;BME280;4288;48.484;10.024;2023-03-14T09:06:28;93808.56;;;11.87;nan
8501;BME280;4288;48.484;10.024;2023-03-14T09:08:55;93801.16;;;11.78;nan
8501;BME280;4288;48.484;10.024;2023-03-14T09:11:22;93806.94;;;11.64;nan
8501;BME280;4288;48.484;10.024;2023-03-14T09:13:49;93800.50;;;12.12;nan
8501;BME280;4288;48.484;10.024;2023-03-14T09:16:17;93803.94;;;12.00;nan
8501;BME280;4288;48.484;10.024;2023-03-14T09:18:44;93807.19;;;12.76;nan
8501;BME280;4288;48.484;10.024;2023-03-14T09:21:11;93810.28;;;12.52;nan
8501;BME280;4288;48.484;10.024;2023-03-14T09:23:39;93817.44;;;13.24;nan
8501;BME280;4288;48.484;10.024;2023-03-14T09:26:06;93809.50;;;12.18;nan
8501;BME280;4288;48.484;10.024;2023-03-14T09:28:33;93813.66;;;12.31;nan
8501;BME280;4288;48.484;10.024;2023-03-14T09:31:06;93814.88;;;12.05;nan
8501;BME280;4288;48.484;10.024;2023-03-14T09:33:35;93819.78;;;12.19;nan
8501;BME280;4288;48.484;10.024;2023-03-14T09:36:03;93812.19;;;11.93;nan
8501;BME280;4288;48.484;10.024;2023-03-14T09:38:31;93820.97;;;11.93;nan
8501;BME280;4288;48.484;10.024;2023-03-14T09:41:01;93809.53;;;12.52;nan
8501;BME280;4288;48.484;10.024;2023-03-14T09:43:31;93827.03;;;13.12;nan
8501;BME280;4288;48.484;10.024;2023-03-14T09:46:02;93820.75;;;13.59;nan
8501;BME280;4288;48.484;10.024;2023-03-14T09:48:32;93825.06;;;14.17;nan
8501;BME280;4288;48.484;10.024;2023-03-14T09:51:05;93822.66;;;14.19;nan
8501;BME280;4288;48.484;10.024;2023-03-14T09:53:39;93831.94;;;15.03;nan
8501;BME280;4288;48.484;10.024;2023-03-14T09:56:13;93821.31;;;15.27;nan
8501;BME280;4288;48.484;10.024;2023-03-14T09:58:44;93819.22;;;14.19;nan
8501;BME280;4288;48.484;10.024;2023-03-14T10:01:16;93810.13;;;13.24;nan
8501;BME280;4288;48.484;10.024;2023-03-14T10:03:45;93810.03;;;12.94;nan
8501;BME280;4288;48.484;10.024;2023-03-14T10:06:15;93816.69;;;12.89;nan
8501;BME280;4288;48.484;10.024;2023-03-14T10:08:44;93816.72;;;12.42;nan
8501;BME280;4288;48.484;10.024;2023-03-14T10:11:15;93819.47;;;12.05;nan
8501;BME280;4288;48.484;10.024;2023-03-14T10:14:03;93821.72;;;11.94;nan
8501;BME280;4288;48.484;10.024;2023-03-14T10:16:33;93819.78;;;11.69;nan
8501;BME280;4288;48.484;10.024;2023-03-14T10:19:06;93821.22;;;11.45;nan
8501;BME280;4288;48.484;10.024;2023-03-14T10:21:40;93827.41;;;11.83;nan
8501;BME280;4288;48.484;10.024;2023-03-14T10:24:16;93814.44;;;12.07;nan
8501;BME280;4288;48.484;10.024;2023-03-14T10:26:49;93809.88;;;12.54;nan
8501;BME280;4288;48.484;10.024;2023-03-14T10:29:17;93811.53;;;12.95;nan
8501;BME280;4288;48.484;10.024;2023-03-14T10:31:51;93812.25;;;13.08;nan
8501;BME280;4288;48.484;10.024;2023-03-14T10:34:24;93810.50;;;13.66;nan
8501;BME280;4288;48.484;10.024;2023-03-14T10:36:58;93817.00;;;13.56;nan
8501;BME280;4288;48.484;10.024;2023-03-14T10:39:40;93807.66;;;13.30;nan
8501;BME280;4288;48.484;10.024;2023-03-14T10:42:18;93811.56;;;13.69;nan
8501;BME280;4288;48.484;10.024;2023-03-14T10:44:49;93824.09;;;13.41;nan
8501;BME280;4288;48.484;10.024;2023-03-14T10:47:21;93828.66;;;13.84;nan
8501;BME280;4288;48.484;10.024;2023-03-14T10:49:49;93826.34;;;13.21;nan
8501;BME280;4288;48.484;10.024;2023-03-14T10:52:23;93833.91;;;12.79;nan
8501;BME280;4288;48.484;10.024;2023-03-14T10:54:56;93830.03;;;12.46;nan
8501;BME280;4288;48.484;10.024;2023-03-14T10:57:24;93830.03;;;12.80;nan
8501;BME280;4288;48.484;10.024;2023-03-14T10:59:53;93834.31;;;12.78;nan
8501;BME280;4288;48.484;10.024;2023-03-14T11:02:49;93827.72;;;12.23;nan
8501;BME280;4288;48.484;10.024;2023-03-14T11:05:28;93828.41;;;12.48;nan
8501;BME280;4288;48.484;10.024;2023-03-14T11:08:02;93828.94;;;12.43;nan
8501;BME280;4288;48.484;10.024;2023-03-14T11:10:33;93857.59;;;12.21;nan
8501;BME280;4288;48.484;10.024;2023-03-14T11:13:18;93830.56;;;12.41;nan
8501;BME280;4288;48.484;10.024;2023-03-14T11:16:01;93818.06;;;12.94;nan
8501;BME280;4288;48.484;10.024;2023-03-14T11:18:58;93806.03;;;12.77;nan
8501;BME280;4288;48.484;10.024;2023-03-14T11:21:32;93810.38;;;13.17;nan
8501;BME280;4288;48.484;10.024;2023-03-14T11:24:33;93808.84;;;12.95;nan
8501;BME280;4288;48.484;10.024;2023-03-14T11:27:17;93819.69;;;12.70;nan
8501;BME280;4288;48.484;10.024;2023-03-14T11:29:54;93828.19;;;12.43;nan
8501;BME280;4288;48.484;10.024;2023-03-14T11:32:35;93834.31;;;12.31;nan
8501;BME280;4288;48.484;10.024;2023-03-14T11:35:12;93823.84;;;12.11;nan
8501;BME280;4288;48.484;10.024;2023-03-14T11:37:47;93831.75;;;12.27;nan
8501;BME280;4288;48.484;10.024;2023-03-14T11:40:22;93831.88;;;12.36;nan
8501;BME280;4288;48.484;10.024;2023-03-14T11:43:04;93834.22;;;12.34;nan
8501;BME280;4288;48.484;10.024;2023-03-14T11:45:38;93831.97;;;12.33;nan
8501;BME280;4288;48.484;10.024;2023-03-14T11:48:29;93833.22;;;13.44;nan
8501;BME280;4288;48.484;10.024;2023-03-14T11:51:08;93834.28;;;13.77;nan
8501;BME280;4288;48.484;10.024;2023-03-14T11:53:51;93832.03;;;13.23;nan
8501;BME280;4288;48.484;10.024;2023-03-14T11:56:31;93836.16;;;12.81;nan
8501;BME280;4288;48.484;10.024;2023-03-14T11:59:04;93842.47;;;12.27;nan
8501;BME280;4288;48.484;10.024;2023-03-14T12:01:45;93845.19;;;12.15;nan
8501;BME280;4288;48.484;10.024;2023-03-14T12:04:27;93865.88;;;11.60;nan
8501;BME280;4288;48.484;10.024;2023-03-14T12:07:01;93864.13;;;11.70;nan
8501;BME280;4288;48.484;10.024;2023-03-14T12:09:29;93871.06;;;11.68;nan
8501;BME280;4288;48.484;10.024;2023-03-14T12:12:01;93866.69;;;11.45;nan
8501;BME280;4288;48.484;10.024;2023-03-14T12:14:32;93877.75;;;11.18;nan
8501;BME280;4288;48.484;10.024;2023-03-14T12:17:06;93882.34;;;11.18;nan
8501;BME280;4288;48.484;10.024;2023-03-14T12:19:38;93886.53;;;10.74;nan
8501;BME280;4288;48.484;10.024;2023-03-14T12:22:26;93891.66;;;10.52;nan
8501;BME280;4288;48.484;10.024;2023-03-14T12:25:00;93898.41;;;10.41;nan
8501;BME280;4288;48.484;10.024;2023-03-14T12:27:46;93899.13;;;10.09;nan
8501;BME280;4288;48.484;10.024;2023-03-14T12:30:25;93900.06;;;9.83;nan
8501;BME280;4288;48.484;10.024;2023-03-14T12:33:27;93907.16;;;9.89;nan
8501;BME280;4288;48.484;10.024;2023-03-14T12:36:00;93909.25;;;9.82;nan
8501;BME280;4288;48.484;10.024;2023-03-14T12:38:55;93910.50;;;9.94;nan
8501;BME280;4288;48.484;10.024;2023-03-14T12:41:29;93899.53;;;9.72;nan
8501;BME280;4288;48.484;10.024;2023-03-14T12:44:40;93913.41;;;9.83;nan
8501;BME280;4288;48.484;10.024;2023-03-14T12:47:49;93909.19;;;9.46;nan
8501;BME280;4288;48.484;10.024;2023-03-14T12:50:27;93910.22;;;9.33;nan
8501;BME280;4288;48.484;10.024;2023-03-14T12:56:05;93909.06;;;9.53;nan
8501;BME280;4288;48.484;10.024;2023-03-14T12:58:42;93900.13;;;9.44;nan
8501;BME280;4288;48.484;10.024;2023-03-14T13:01:18;93906.69;;;9.39;nan
8501;BME280;4288;48.484;10.024;2023-03-14T13:03:49;93914.59;;;9.43;nan
8501;BME280;4288;48.484;10.024;2023-03-14T13:06:51;93927.53;;;9.44;nan
8501;BME280;4288;48.484;10.024;2023-03-14T13:09:54;93928.44;;;9.38;nan
8501;BME280;4288;48.484;10.024;2023-03-14T13:12:36;93951.13;;;9.26;nan
8501;BME280;4288;48.484;10.024;2023-03-14T13:15:17;93948.88;;;9.02;nan
8501;BME280;4288;48.484;10.024;2023-03-14T13:17:48;93969.34;;;8.85;nan
8501;BME280;4288;48.484;10.024;2023-03-14T13:20:21;93993.69;;;8.60;nan
8501;BME280;4288;48.484;10.024;2023-03-14T13:22:50;93996.41;;;8.57;nan
8501;BME280;4288;48.484;10.024;2023-03-14T13:25:18;94044.94;;;8.07;nan
8501;BME280;4288;48.484;10.024;2023-03-14T13:27:47;94003.31;;;7.94;nan
8501;BME280;4288;48.484;10.024;2023-03-14T13:30:22;94009.03;;;7.92;nan
8501;BME280;4288;48.484;10.024;2023-03-14T13:32:52;94025.41;;;7.91;nan
8501;BME280;4288;48.484;10.024;2023-03-14T13:35:26;94028.03;;;7.94;nan
8501;BME280;4288;48.484;10.024;2023-03-14T13:37:57;94023.06;;;7.96;nan
8501;BME280;4288;48.484;10.024;2023-03-14T13:40:30;94033.88;;;8.13;nan
8501;BME280;4288;48.484;10.024;2023-03-14T13:43:10;94034.13;;;8.22;nan
8501;BME280;4288;48.484;10.024;2023-03-14T13:45:51;94038.84;;;8.41;nan
8501;BME280;4288;48.484;10.024;2023-03-14T13:48:22;94049.25;;;8.58;nan
8501;BME280;4288;48.484;10.024;2023-03-14T13:50:52;94050.53;;;9.00;nan
8501;BME280;4288;48.484;10.024;2023-03-14T13:53:20;94058.16;;;10.26;nan
8501;BME280;4288;48.484;10.024;2023-03-14T13:55:47;94075.22;;;10.32;nan
8501;BME280;4288;48.484;10.024;2023-03-14T13:58:22;94071.91;;;10.44;nan
8501;BME280;4288;48.484;10.024;2023-03-14T14:01:06;94095.63;;;10.42;nan
8501;BME280;4288;48.484;10.024;2023-03-14T14:03:41;94100.44;;;9.46;nan